createdAt,value
2022-12-08T05:00:35.231Z,3.51
2022-12-08T05:01:35.327Z,3.54
2022-12-08T05:02:35.172Z,3.55
2022-12-08T05:03:35.160Z,3.50
2022-12-08T05:04:35.142Z,3.50
2022-12-08T05:05:35.139Z,3.50
2022-12-08T05:06:35.115Z,3.31
2022-12-08T05:07:35.106Z,3.43
2022-12-08T05:08:35.198Z,3.39
2022-12-08T05:09:35.080Z,3.35
2022-12-08T05:10:35.081Z,3.39
2022-12-08T05:11:42.738Z,3.36
2022-12-08T05:12:36.051Z,3.48
2022-12-08T05:13:35.036Z,3.47
2022-12-08T05:14:35.035Z,3.50
2022-12-08T05:15:35.044Z,3.54
2022-12-08T05:16:35.099Z,3.35
2022-12-08T05:17:34.990Z,3.31
2022-12-08T05:18:35.006Z,3.39
2022-12-08T05:19:34.970Z,3.39
2022-12-08T05:20:34.961Z,3.23
2022-12-08T05:21:34.961Z,3.26
2022-12-08T05:22:39.958Z,3.36
2022-12-08T05:23:34.926Z,3.28
2022-12-08T05:24:34.919Z,3.32
2022-12-08T05:25:34.914Z,3.42
2022-12-08T05:26:34.906Z,3.33
2022-12-08T05:27:34.883Z,3.40
2022-12-08T05:28:43.312Z,3.31
2022-12-08T05:29:35.860Z,3.31
2022-12-08T05:30:34.850Z,3.47
2022-12-08T05:31:34.915Z,3.32
2022-12-08T05:32:34.846Z,3.48
2022-12-08T05:33:39.849Z,3.42
2022-12-08T05:34:34.806Z,3.48
2022-12-08T05:35:34.792Z,3.42
2022-12-08T05:36:34.795Z,3.45
2022-12-08T05:37:34.774Z,3.45
2022-12-08T05:38:34.761Z,3.35
2022-12-08T05:39:34.752Z,3.42
2022-12-08T05:40:34.751Z,3.48
2022-12-08T05:41:34.758Z,3.45
2022-12-08T05:42:34.719Z,3.47
2022-12-08T05:43:34.714Z,3.42
2022-12-08T05:44:39.715Z,3.51
2022-12-08T05:45:34.790Z,3.47
2022-12-08T05:46:34.703Z,3.47
2022-12-08T05:47:36.343Z,3.52
2022-12-08T05:48:34.672Z,3.45
2022-12-08T05:49:34.646Z,3.47
2022-12-08T05:50:34.628Z,3.47
2022-12-08T05:51:34.627Z,3.45
2022-12-08T05:52:34.604Z,3.55
2022-12-08T05:53:34.606Z,3.54
2022-12-08T05:54:34.594Z,3.54
2022-12-08T05:55:39.596Z,3.54
2022-12-08T05:56:34.666Z,3.55
2022-12-08T05:57:34.553Z,3.50
2022-12-08T05:58:34.550Z,3.48
2022-12-08T05:59:34.528Z,3.36
2022-12-08T06:00:34.518Z,3.51
2022-12-08T06:01:34.546Z,3.42
2022-12-08T06:02:34.681Z,3.47
2022-12-08T06:03:34.622Z,3.47
2022-12-08T06:04:34.496Z,3.45
2022-12-08T06:05:34.464Z,3.52
2022-12-08T06:06:39.514Z,3.50
2022-12-08T06:07:34.437Z,3.57
2022-12-08T06:08:34.433Z,3.57
2022-12-08T06:09:34.416Z,3.55
2022-12-08T06:10:34.424Z,3.58
2022-12-08T06:11:34.426Z,3.51
2022-12-08T06:12:34.395Z,3.51
2022-12-08T06:13:34.374Z,3.51
2022-12-08T06:14:34.360Z,3.54
2022-12-08T06:15:34.439Z,3.52
2022-12-08T06:16:34.457Z,3.50
2022-12-08T06:17:39.348Z,3.54
2022-12-08T06:18:34.314Z,3.52
2022-12-08T06:19:34.400Z,3.55
2022-12-08T06:20:34.318Z,3.51
2022-12-08T06:21:34.299Z,3.62
2022-12-08T06:22:34.383Z,3.60
2022-12-08T06:23:34.267Z,3.58
2022-12-08T06:24:34.247Z,3.58
2022-12-08T06:25:34.239Z,3.55
2022-12-08T06:26:34.246Z,3.55
2022-12-08T06:27:34.227Z,3.52
2022-12-08T06:28:39.225Z,3.61
2022-12-08T06:29:34.200Z,3.57
2022-12-08T06:30:34.184Z,3.52
2022-12-08T06:31:34.281Z,3.55
2022-12-08T06:32:34.273Z,3.57
2022-12-08T06:33:34.159Z,3.51
2022-12-08T06:34:34.139Z,3.58
2022-12-08T06:35:34.127Z,3.51
2022-12-08T06:36:34.138Z,3.50
2022-12-08T06:37:34.130Z,3.55
2022-12-08T06:38:34.099Z,3.57
2022-12-08T06:39:39.104Z,3.62
2022-12-08T06:40:34.075Z,3.50
2022-12-08T06:41:34.106Z,3.50
2022-12-08T06:42:34.058Z,3.51
2022-12-08T06:43:34.077Z,3.48
2022-12-08T06:44:34.026Z,3.58
2022-12-08T06:45:34.049Z,3.57
2022-12-08T06:46:34.109Z,3.55
2022-12-08T06:47:34.031Z,3.50
2022-12-08T06:48:34.005Z,3.54
2022-12-08T06:49:33.985Z,3.58
2022-12-08T06:50:39.148Z,3.61
2022-12-08T06:51:33.948Z,3.55
2022-12-08T06:52:37.642Z,3.55
2022-12-08T06:53:34.924Z,3.51
2022-12-08T06:54:33.918Z,3.54
2022-12-08T06:56:34.897Z,3.54
2022-12-08T06:57:33.890Z,3.60
2022-12-08T06:58:33.905Z,3.58
2022-12-08T06:59:33.862Z,3.54
2022-12-08T07:00:33.853Z,3.55
2022-12-08T07:01:38.933Z,3.54
2022-12-08T07:02:33.949Z,3.61
2022-12-08T07:03:33.817Z,3.60
2022-12-08T07:04:33.917Z,3.58
2022-12-08T07:05:33.795Z,3.62
2022-12-08T07:06:33.817Z,3.70
2022-12-08T07:07:33.777Z,3.70
2022-12-08T07:08:33.890Z,3.72
2022-12-08T07:09:33.762Z,3.70
2022-12-08T07:10:33.737Z,3.61
2022-12-08T07:11:33.780Z,3.70
2022-12-08T07:12:38.738Z,3.60
2022-12-08T07:13:33.782Z,3.60
2022-12-08T07:14:33.712Z,3.60
2022-12-08T07:15:33.683Z,3.65
2022-12-08T07:16:33.757Z,3.60
2022-12-08T07:17:33.698Z,3.73
2022-12-08T07:18:33.660Z,3.66
2022-12-08T07:19:33.638Z,3.68
2022-12-08T07:20:33.632Z,3.69
2022-12-08T07:21:33.656Z,3.73
2022-12-08T07:22:33.619Z,3.75
2022-12-08T07:23:38.646Z,3.70
2022-12-08T07:24:33.597Z,3.70
2022-12-08T07:25:33.579Z,3.72
2022-12-08T07:26:33.578Z,3.70
2022-12-08T07:27:33.559Z,3.73
2022-12-08T07:28:33.568Z,3.75
2022-12-08T07:29:33.542Z,3.80
2022-12-08T07:30:33.599Z,3.83
2022-12-08T07:31:33.506Z,3.72
2022-12-08T07:32:33.494Z,3.76
2022-12-08T07:33:33.499Z,3.79
2022-12-08T07:34:38.496Z,3.72
2022-12-08T07:35:34.961Z,3.68
2022-12-08T07:36:33.453Z,3.73
2022-12-08T07:37:33.439Z,3.72
2022-12-08T07:38:33.458Z,3.78
2022-12-08T07:39:33.441Z,3.78
2022-12-08T07:40:34.430Z,3.78
2022-12-08T07:41:33.394Z,3.80
2022-12-08T07:42:33.383Z,3.79
2022-12-08T07:43:33.385Z,3.79
2022-12-08T07:44:33.367Z,3.78
2022-12-08T07:45:38.371Z,3.70
2022-12-08T07:46:33.429Z,3.83
2022-12-08T07:47:33.326Z,3.79
2022-12-08T07:48:33.381Z,3.73
2022-12-08T07:49:33.323Z,3.83
2022-12-08T07:50:33.297Z,3.76
2022-12-08T07:51:33.286Z,3.86
2022-12-08T07:52:33.280Z,3.91
2022-12-08T07:53:33.284Z,3.91
2022-12-08T07:54:33.256Z,3.96
2022-12-08T07:55:33.274Z,3.91
2022-12-08T07:56:38.253Z,3.87
2022-12-08T07:57:33.219Z,3.94
2022-12-08T07:58:33.219Z,3.94
2022-12-08T07:59:33.196Z,3.98
2022-12-08T08:00:33.241Z,3.97
2022-12-08T08:01:33.304Z,3.96
2022-12-08T08:02:33.242Z,4.04
2022-12-08T08:03:33.235Z,4.02
2022-12-08T08:04:33.226Z,4.00
2022-12-08T08:05:33.145Z,3.96
2022-12-08T08:06:33.143Z,4.09
2022-12-08T08:07:38.194Z,4.11
2022-12-08T08:08:33.199Z,4.14
2022-12-08T08:09:33.084Z,4.00
2022-12-08T08:10:33.075Z,4.08
2022-12-08T08:11:33.084Z,4.16
2022-12-08T08:12:33.449Z,4.12
2022-12-08T08:13:33.048Z,4.15
2022-12-08T08:14:33.028Z,4.12
2022-12-08T08:15:33.235Z,4.12
2022-12-08T08:16:38.120Z,4.05
2022-12-08T08:17:34.159Z,4.04
2022-12-08T08:18:38.023Z,4.09
2022-12-08T08:19:32.972Z,4.09
2022-12-08T08:20:32.981Z,3.97
2022-12-08T08:21:48.421Z,4.00
2022-12-08T08:22:33.942Z,4.08
2022-12-08T08:23:32.943Z,4.09
2022-12-08T08:24:32.947Z,4.06
2022-12-08T08:25:32.905Z,4.08
2022-12-08T08:26:32.901Z,4.06
2022-12-08T08:27:32.913Z,4.12
2022-12-08T08:28:32.874Z,4.11
2022-12-08T08:29:37.901Z,4.12
2022-12-08T08:30:32.851Z,4.08
2022-12-08T08:31:33.079Z,4.11
2022-12-08T08:32:32.829Z,4.11
2022-12-08T08:33:32.816Z,4.12
2022-12-08T08:34:32.823Z,4.12
2022-12-08T08:35:32.795Z,4.09
2022-12-08T08:36:32.789Z,4.14
2022-12-08T08:37:32.782Z,4.08
2022-12-08T08:38:32.767Z,4.15
2022-12-08T08:39:32.801Z,4.11
2022-12-08T08:40:37.763Z,4.14
2022-12-08T08:41:32.736Z,4.18
2022-12-08T08:42:32.723Z,4.09
2022-12-08T08:43:37.844Z,4.14
2022-12-08T08:44:33.747Z,4.08
2022-12-08T08:45:32.691Z,4.12
2022-12-08T08:46:32.834Z,4.12
2022-12-08T08:47:32.664Z,4.14
2022-12-08T08:48:32.654Z,4.14
2022-12-08T08:49:32.674Z,4.18
2022-12-08T08:50:37.405Z,4.06
2022-12-08T08:51:38.655Z,4.08
2022-12-08T08:52:32.620Z,4.09
2022-12-08T08:53:32.608Z,3.98
2022-12-08T08:54:32.613Z,3.97
2022-12-08T08:55:32.576Z,3.98
2022-12-08T08:56:32.565Z,4.06
2022-12-08T08:57:32.554Z,4.09
2022-12-08T08:58:32.600Z,4.02
2022-12-08T08:59:32.565Z,3.98
2022-12-08T09:00:32.522Z,3.98
2022-12-08T09:01:32.661Z,3.88
2022-12-08T09:02:37.518Z,3.98
2022-12-08T09:03:32.498Z,4.11
2022-12-08T09:04:32.551Z,4.18
2022-12-08T09:05:32.462Z,4.18
2022-12-08T09:06:32.601Z,4.09
2022-12-08T09:07:32.443Z,4.15
2022-12-08T09:08:32.536Z,4.14
2022-12-08T09:09:32.433Z,4.11
2022-12-08T09:10:32.420Z,4.12
2022-12-08T09:11:32.401Z,4.08
2022-12-08T09:12:32.389Z,4.08
2022-12-08T09:13:37.402Z,4.11
2022-12-08T09:14:32.365Z,4.18
2022-12-08T09:15:32.483Z,4.16
2022-12-08T09:16:36.218Z,4.20
2022-12-08T09:17:33.331Z,4.26
2022-12-08T09:18:32.321Z,4.36
2022-12-08T09:19:32.313Z,4.34
2022-12-08T09:20:32.306Z,4.36
2022-12-08T09:21:32.301Z,4.34
2022-12-08T09:22:32.285Z,4.45
2022-12-08T09:23:35.588Z,4.60
2022-12-08T09:24:37.275Z,4.54
2022-12-08T09:25:32.270Z,4.51
2022-12-08T09:26:32.233Z,4.55
2022-12-08T09:27:32.224Z,4.60
2022-12-08T09:28:32.209Z,4.60
2022-12-08T09:29:35.893Z,4.59
2022-12-08T09:30:32.194Z,4.62
2022-12-08T09:31:32.234Z,4.60
2022-12-08T09:32:32.186Z,4.60
2022-12-08T09:33:32.166Z,4.55
2022-12-08T09:34:32.141Z,4.69
2022-12-08T09:35:37.190Z,4.62
2022-12-08T09:36:32.122Z,4.78
2022-12-08T09:37:32.123Z,4.77
2022-12-08T09:38:32.145Z,4.72
2022-12-08T09:39:32.096Z,4.73
2022-12-08T09:40:32.117Z,4.73
2022-12-08T09:41:37.479Z,4.75
2022-12-08T09:42:33.065Z,4.78
2022-12-08T09:43:32.084Z,4.88
2022-12-08T09:44:32.073Z,4.86
2022-12-08T09:45:32.046Z,4.89
2022-12-08T09:46:37.184Z,4.84
2022-12-08T09:47:35.835Z,4.92
2022-12-08T09:48:32.089Z,4.88
2022-12-08T09:49:32.009Z,4.99
2022-12-08T09:50:32.038Z,5.04
2022-12-08T09:51:31.981Z,5.03
2022-12-08T09:52:31.943Z,4.89
2022-12-08T09:53:35.694Z,4.96
2022-12-08T09:54:31.922Z,5.06
2022-12-08T09:55:31.909Z,5.17
2022-12-08T09:56:31.946Z,5.20
2022-12-08T09:57:36.912Z,5.06
2022-12-08T09:58:31.877Z,4.99
2022-12-08T09:59:31.905Z,5.18
2022-12-08T10:00:31.888Z,5.18
2022-12-08T10:01:31.871Z,5.18
2022-12-08T10:02:31.854Z,5.20
2022-12-08T10:03:31.823Z,5.17
2022-12-08T10:04:31.963Z,5.21
2022-12-08T10:05:31.910Z,5.27
2022-12-08T10:06:31.810Z,5.25
2022-12-08T10:07:31.825Z,5.17
2022-12-08T10:08:36.790Z,5.20
2022-12-08T10:09:31.777Z,5.31
2022-12-08T10:10:31.750Z,5.35
2022-12-08T10:11:31.754Z,5.38
2022-12-08T10:12:31.740Z,5.49
2022-12-08T10:13:31.709Z,5.43
2022-12-08T10:14:31.696Z,5.42
2022-12-08T10:15:31.688Z,5.43
2022-12-08T10:16:31.714Z,5.48
2022-12-08T10:17:31.677Z,5.42
2022-12-08T10:18:31.677Z,5.54
2022-12-08T10:19:36.665Z,5.64
2022-12-08T10:20:31.630Z,5.68
2022-12-08T10:21:31.629Z,5.75
2022-12-08T10:22:31.621Z,5.76
2022-12-08T10:23:31.614Z,5.74
2022-12-08T10:24:31.612Z,5.71
2022-12-08T10:25:31.574Z,5.71
2022-12-08T10:26:31.636Z,5.71
2022-12-08T10:27:31.562Z,5.79
2022-12-08T10:28:31.542Z,5.75
2022-12-08T10:29:31.531Z,5.74
2022-12-08T10:30:36.539Z,5.72
2022-12-08T10:31:31.625Z,5.78
2022-12-08T10:32:31.512Z,5.63
2022-12-08T10:33:31.493Z,5.79
2022-12-08T10:34:31.508Z,5.65
2022-12-08T10:35:31.480Z,5.71
2022-12-08T10:36:31.449Z,5.72
2022-12-08T10:37:31.453Z,5.68
2022-12-08T10:38:31.432Z,5.68
2022-12-08T10:39:31.420Z,5.75
2022-12-08T10:40:31.408Z,5.72
2022-12-08T10:41:36.447Z,5.74
2022-12-08T10:42:31.401Z,5.76
2022-12-08T10:43:31.380Z,5.76
2022-12-08T10:44:31.364Z,5.85
2022-12-08T10:45:31.354Z,5.82
2022-12-08T10:46:31.488Z,5.63
2022-12-08T10:47:31.423Z,5.56
2022-12-08T10:48:31.320Z,5.56
2022-12-08T10:49:31.306Z,5.63
2022-12-08T10:50:31.325Z,5.68
2022-12-08T10:51:31.287Z,5.71
2022-12-08T10:52:36.302Z,5.68
2022-12-08T10:53:31.353Z,5.68
2022-12-08T10:54:31.249Z,5.60
2022-12-08T10:55:31.271Z,5.68
2022-12-08T10:56:31.265Z,5.75
2022-12-08T10:57:31.242Z,5.65
2022-12-08T10:58:31.206Z,5.68
2022-12-08T10:59:31.192Z,5.68
2022-12-08T11:00:31.372Z,5.75
2022-12-08T11:01:31.233Z,5.72
2022-12-08T11:02:31.302Z,5.76
2022-12-08T11:03:36.177Z,5.76
2022-12-08T11:04:31.138Z,5.81
2022-12-08T11:05:31.131Z,5.71
2022-12-08T11:06:31.137Z,5.72
2022-12-08T11:07:31.128Z,5.63
2022-12-08T11:08:31.168Z,5.63
2022-12-08T11:09:31.081Z,5.71
2022-12-08T11:10:31.073Z,5.68
2022-12-08T11:11:31.083Z,5.74
2022-12-08T11:12:31.064Z,5.68
2022-12-08T11:13:31.081Z,5.68
2022-12-08T11:14:36.073Z,5.63
2022-12-08T11:15:31.015Z,5.68
2022-12-08T11:16:31.130Z,5.58
2022-12-08T11:17:30.991Z,5.64
2022-12-08T11:18:31.025Z,5.63
2022-12-08T11:19:30.973Z,5.58
2022-12-08T11:20:30.992Z,5.65
2022-12-08T11:21:30.948Z,5.68
2022-12-08T11:22:30.958Z,5.63
2022-12-08T11:23:30.966Z,5.65
2022-12-08T11:24:36.054Z,5.63
2022-12-08T11:25:36.925Z,5.65
2022-12-08T11:26:30.889Z,5.61
2022-12-08T11:27:30.883Z,5.68
2022-12-08T11:28:30.878Z,5.67
2022-12-08T11:29:30.866Z,5.71
2022-12-08T11:30:30.849Z,5.79
2022-12-08T11:31:30.970Z,5.76
2022-12-08T11:32:30.832Z,5.65
2022-12-08T11:33:30.898Z,5.78
2022-12-08T11:34:30.808Z,5.82
2022-12-08T11:35:30.793Z,5.68
2022-12-08T11:36:35.803Z,5.72
2022-12-08T11:37:34.649Z,5.76
2022-12-08T11:38:30.798Z,5.74
2022-12-08T11:39:30.760Z,5.79
2022-12-08T11:40:30.738Z,5.74
2022-12-08T11:41:30.728Z,5.71
2022-12-08T11:42:30.715Z,5.75
2022-12-08T11:43:30.704Z,5.74
2022-12-08T11:44:30.764Z,5.72
2022-12-08T11:45:30.855Z,5.72
2022-12-08T11:46:30.779Z,5.71
2022-12-08T11:47:35.693Z,5.68
2022-12-08T11:48:30.671Z,5.71
2022-12-08T11:49:30.655Z,5.60
2022-12-08T11:50:30.624Z,5.74
2022-12-08T11:51:30.614Z,5.65
2022-12-08T11:52:30.608Z,5.64
2022-12-08T11:53:30.641Z,5.67
2022-12-08T11:54:30.617Z,5.64
2022-12-08T11:55:35.275Z,5.64
2022-12-08T11:56:31.554Z,5.67
2022-12-08T11:57:30.550Z,5.65
2022-12-08T11:58:35.567Z,5.64
2022-12-08T11:59:30.550Z,5.67
2022-12-08T12:00:30.511Z,5.68
2022-12-08T12:01:30.502Z,5.68
2022-12-08T12:02:30.581Z,5.68
2022-12-08T12:03:30.532Z,5.68
2022-12-08T12:04:30.481Z,5.75
2022-12-08T12:06:05.484Z,5.71
2022-12-08T12:06:53.317Z,5.71
2022-12-08T12:07:31.436Z,5.71
2022-12-08T12:08:30.493Z,5.65
2022-12-08T12:09:35.503Z,5.64
2022-12-08T12:10:30.401Z,5.74
2022-12-08T12:11:30.392Z,5.79
2022-12-08T12:12:33.742Z,5.79
2022-12-08T12:13:31.373Z,5.81
2022-12-08T12:14:30.368Z,5.60
2022-12-08T12:15:30.363Z,5.48
2022-12-08T12:16:30.406Z,5.48
2022-12-08T12:17:30.329Z,5.57
2022-12-08T12:18:30.311Z,5.51
2022-12-08T12:19:30.313Z,5.57
2022-12-08T12:20:35.343Z,5.58
2022-12-08T12:21:30.283Z,5.57
2022-12-08T12:22:30.273Z,5.60
2022-12-08T12:23:30.271Z,5.56
2022-12-08T12:24:35.427Z,5.51
2022-12-08T12:25:31.273Z,5.54
2022-12-08T12:26:30.230Z,5.46
2022-12-08T12:27:30.227Z,5.54
2022-12-08T12:28:30.208Z,5.57
2022-12-08T12:29:30.199Z,5.53
2022-12-08T12:30:30.234Z,5.42
2022-12-08T12:31:35.197Z,5.53
2022-12-08T12:32:30.155Z,5.57
2022-12-08T12:33:30.145Z,5.54
2022-12-08T12:34:30.143Z,5.51
2022-12-08T12:35:30.144Z,5.54
2022-12-08T12:36:30.111Z,5.61
2022-12-08T12:37:30.109Z,5.71
2022-12-08T12:38:30.100Z,5.72
2022-12-08T12:39:30.087Z,5.72
2022-12-08T12:40:30.085Z,5.63
2022-12-08T12:41:30.090Z,5.61
2022-12-08T12:42:35.083Z,5.61
2022-12-08T12:43:30.034Z,5.63
2022-12-08T12:44:30.023Z,5.67
2022-12-08T12:45:30.034Z,5.63
2022-12-08T12:46:30.072Z,5.71
2022-12-08T12:47:29.993Z,5.82
2022-12-08T12:48:29.980Z,5.82
2022-12-08T12:49:29.981Z,5.81
2022-12-08T12:50:29.976Z,5.93
2022-12-08T12:51:29.954Z,6.00
2022-12-08T12:52:29.935Z,5.76
2022-12-08T12:53:34.950Z,5.76
2022-12-08T12:54:29.913Z,5.61
2022-12-08T12:55:29.930Z,5.71
2022-12-08T12:56:29.892Z,5.71
2022-12-08T12:57:29.907Z,5.79
2022-12-08T12:58:29.865Z,5.71
2022-12-08T12:59:29.857Z,5.81
2022-12-08T13:00:29.856Z,5.74
2022-12-08T13:01:29.973Z,5.68
2022-12-08T13:02:29.963Z,5.71
2022-12-08T13:03:29.812Z,5.76
2022-12-08T13:04:34.828Z,5.75
2022-12-08T13:05:29.800Z,5.81
2022-12-08T13:06:29.777Z,5.76
2022-12-08T13:07:29.768Z,5.90
2022-12-08T13:08:29.861Z,5.89
2022-12-08T13:09:29.752Z,6.00
2022-12-08T13:10:29.743Z,5.96
2022-12-08T13:11:29.732Z,6.04
2022-12-08T13:12:29.713Z,5.94
2022-12-08T13:13:29.727Z,6.11
2022-12-08T13:14:29.690Z,5.94
2022-12-08T13:15:34.744Z,5.97
2022-12-08T13:16:29.729Z,5.91
2022-12-08T13:17:29.652Z,5.91
2022-12-08T13:18:29.644Z,5.93
2022-12-08T13:19:29.633Z,5.99
2022-12-08T13:20:29.624Z,6.04
2022-12-08T13:21:29.622Z,6.04
2022-12-08T13:22:29.623Z,5.99
2022-12-08T13:23:29.589Z,6.00
2022-12-08T13:24:29.589Z,6.01
2022-12-08T13:25:33.890Z,5.96
2022-12-08T13:26:35.625Z,5.89
2022-12-08T13:27:29.551Z,5.91
2022-12-08T13:28:29.532Z,5.94
2022-12-08T13:29:29.552Z,5.90
2022-12-08T13:30:29.560Z,5.85
2022-12-08T13:31:29.508Z,5.78
2022-12-08T13:32:38.995Z,5.79
2022-12-08T13:33:30.484Z,5.79
2022-12-08T13:34:29.465Z,5.76
2022-12-08T13:35:29.458Z,5.76
2022-12-08T13:36:29.455Z,5.76
2022-12-08T13:37:34.449Z,5.75
2022-12-08T13:38:29.427Z,5.76
2022-12-08T13:39:29.406Z,5.74
2022-12-08T13:40:29.401Z,5.67
2022-12-08T13:41:29.405Z,5.72
2022-12-08T13:42:29.376Z,5.75
2022-12-08T13:43:38.785Z,5.78
2022-12-08T13:47:34.709Z,5.60
2022-12-08T13:53:48.701Z,5.56
2022-12-08T13:57:02.746Z,5.78
2022-12-08T13:57:30.357Z,5.76
2022-12-08T13:58:29.216Z,5.74
2022-12-08T13:59:34.221Z,5.79
2022-12-08T14:00:29.190Z,5.76
2022-12-08T14:01:29.219Z,5.76
2022-12-08T14:02:29.235Z,5.83
2022-12-08T14:03:29.145Z,5.68
2022-12-08T14:05:16.447Z,5.63
2022-12-08T14:06:03.274Z,5.65
2022-12-08T14:06:30.104Z,5.48
2022-12-08T14:07:29.111Z,5.46
2022-12-08T14:08:57.776Z,5.33
2022-12-08T14:09:30.107Z,5.36
2022-12-08T14:10:34.098Z,5.22
2022-12-08T14:11:29.057Z,5.31
2022-12-08T14:12:29.054Z,5.40
2022-12-08T14:13:29.031Z,5.40
2022-12-08T14:15:00.549Z,5.45
2022-12-08T14:15:34.180Z,5.40
2022-12-08T14:16:30.056Z,5.46
2022-12-08T14:17:29.015Z,5.43
2022-12-08T14:18:28.983Z,5.43
2022-12-08T14:19:28.961Z,5.48
2022-12-08T14:20:28.988Z,5.45
2022-12-08T14:21:36.176Z,5.49
2022-12-08T14:22:28.965Z,5.51
2022-12-08T14:23:28.921Z,5.53
2022-12-08T14:24:28.924Z,5.48
2022-12-08T14:25:28.902Z,5.43
2022-12-08T14:26:28.892Z,5.54
2022-12-08T14:27:28.890Z,5.46
2022-12-08T14:28:28.931Z,5.46
2022-12-08T14:29:28.919Z,5.48
2022-12-08T14:30:28.868Z,5.49
2022-12-08T14:31:28.921Z,5.51
2022-12-08T14:32:33.886Z,5.49
2022-12-08T14:33:28.836Z,5.49
2022-12-08T14:34:28.802Z,5.49
2022-12-08T14:35:28.786Z,5.48
2022-12-08T14:36:28.779Z,5.49
2022-12-08T14:37:28.786Z,5.49
2022-12-08T14:38:28.839Z,5.51
2022-12-08T14:39:28.788Z,5.48
2022-12-08T14:40:28.744Z,5.48
2022-12-08T14:41:28.723Z,5.43
2022-12-08T14:42:28.746Z,5.40
2022-12-08T14:43:33.718Z,5.31
2022-12-08T14:44:28.709Z,5.42
2022-12-08T14:45:28.685Z,5.36
2022-12-08T14:46:28.737Z,5.43
2022-12-08T14:47:28.657Z,5.40
2022-12-08T14:48:28.679Z,5.46
2022-12-08T14:49:28.653Z,5.43
2022-12-08T14:50:28.647Z,5.38
2022-12-08T14:51:28.615Z,5.40
2022-12-08T14:52:28.600Z,5.35
2022-12-08T14:53:28.630Z,5.35
2022-12-08T14:54:33.606Z,5.36
2022-12-08T14:55:28.578Z,5.35
2022-12-08T14:56:28.586Z,5.35
2022-12-08T14:57:28.569Z,5.36
2022-12-08T14:58:28.543Z,5.36
2022-12-08T14:59:28.520Z,5.27
2022-12-08T15:00:28.516Z,5.25
2022-12-08T15:01:28.563Z,5.28
2022-12-08T15:02:28.491Z,5.28
2022-12-08T15:03:28.490Z,5.22
2022-12-08T15:04:28.664Z,5.30
2022-12-08T15:05:33.475Z,5.28
2022-12-08T15:06:28.451Z,5.28
2022-12-08T15:07:28.436Z,5.33
2022-12-08T15:08:28.541Z,5.22
2022-12-08T15:09:28.410Z,5.25
2022-12-08T15:10:28.403Z,5.27
2022-12-08T15:11:28.396Z,5.20
2022-12-08T15:12:28.395Z,5.30
2022-12-08T15:13:28.377Z,5.27
2022-12-08T15:14:28.361Z,5.15
2022-12-08T15:15:28.350Z,5.21
2022-12-08T15:16:33.446Z,5.13
2022-12-08T15:17:28.331Z,5.22
2022-12-08T15:18:28.343Z,5.18
2022-12-08T15:19:28.345Z,5.06
2022-12-08T15:20:34.566Z,5.03
2022-12-08T15:21:29.298Z,5.21
2022-12-08T15:22:28.287Z,5.03
2022-12-08T15:23:28.269Z,5.06
2022-12-08T15:24:28.246Z,5.06
2022-12-08T15:25:28.247Z,5.03
2022-12-08T15:26:28.231Z,5.00
2022-12-08T15:27:39.764Z,5.04
2022-12-08T15:28:30.287Z,5.04
2022-12-08T15:29:28.212Z,5.02
2022-12-08T15:30:28.178Z,5.00
2022-12-08T15:31:28.269Z,5.13
2022-12-08T15:32:28.160Z,5.09
2022-12-08T15:33:28.160Z,5.07
2022-12-08T15:34:28.139Z,5.10
2022-12-08T15:35:28.123Z,5.06
2022-12-08T15:36:28.141Z,5.12
2022-12-08T15:37:28.125Z,5.10
2022-12-08T15:38:33.148Z,5.03
2022-12-08T15:39:28.080Z,5.04
2022-12-08T15:40:28.074Z,5.12
2022-12-08T15:41:28.058Z,5.03
2022-12-08T15:42:28.059Z,5.06
2022-12-08T15:43:28.039Z,5.07
2022-12-08T15:44:28.036Z,5.09
2022-12-08T15:45:28.012Z,5.09
2022-12-08T15:46:28.059Z,5.18
2022-12-08T15:47:27.998Z,5.00
2022-12-08T15:48:27.990Z,4.99
2022-12-08T15:49:33.006Z,5.06
2022-12-08T15:50:27.958Z,5.07
2022-12-08T15:51:27.945Z,5.00
2022-12-08T15:52:27.961Z,5.07
2022-12-08T15:53:27.924Z,5.00
2022-12-08T15:54:27.939Z,5.09
2022-12-08T15:55:27.900Z,5.10
2022-12-08T15:56:28.673Z,5.04
2022-12-08T15:58:52.856Z,5.03
2022-12-08T15:59:28.875Z,4.97
2022-12-08T16:01:02.462Z,5.06
2022-12-08T16:01:28.874Z,5.07
2022-12-08T16:02:49.086Z,5.00
2022-12-08T16:05:12.028Z,5.06
2022-12-08T16:05:44.480Z,5.00
2022-12-08T16:07:12.799Z,5.18
2022-12-08T16:07:28.842Z,4.99
2022-12-08T16:08:46.151Z,5.09
2022-12-08T16:09:28.917Z,5.13
2022-12-08T16:10:35.392Z,5.17
2022-12-08T16:12:04.678Z,5.18
2022-12-08T16:12:35.536Z,5.18
2022-12-08T16:13:56.102Z,5.18
2022-12-08T16:16:28.666Z,5.09
2022-12-08T16:17:27.657Z,4.96
2022-12-08T16:18:27.652Z,5.03
2022-12-08T16:19:27.633Z,4.92
2022-12-08T16:20:43.961Z,5.09
2022-12-08T16:22:04.738Z,5.03
2022-12-08T16:23:13.514Z,5.03
2022-12-08T16:23:42.287Z,5.02
2022-12-08T16:24:28.736Z,5.03
2022-12-08T16:25:36.363Z,5.00
2022-12-08T16:27:28.485Z,5.04
2022-12-08T16:28:00.013Z,5.07
2022-12-08T16:28:53.355Z,5.04
2022-12-08T16:29:28.529Z,5.03
2022-12-08T16:30:27.522Z,5.06
2022-12-08T16:31:27.626Z,5.02
2022-12-08T16:32:27.608Z,5.07
2022-12-08T16:33:32.507Z,4.97
2022-12-08T16:34:27.481Z,5.07
2022-12-08T16:35:27.468Z,5.00
2022-12-08T16:36:27.444Z,5.02
2022-12-08T16:37:27.448Z,5.04
2022-12-08T16:38:27.423Z,5.10
2022-12-08T16:39:27.483Z,5.02
2022-12-08T16:40:27.446Z,5.04
2022-12-08T16:41:27.396Z,4.86
2022-12-08T16:42:27.398Z,4.92
2022-12-08T16:43:27.369Z,4.94
2022-12-08T16:44:32.389Z,4.88
2022-12-08T16:45:27.445Z,4.92
2022-12-08T16:46:27.420Z,4.89
2022-12-08T16:47:27.325Z,4.96
2022-12-08T16:48:27.314Z,4.91
2022-12-08T16:49:27.305Z,4.92
2022-12-08T16:50:27.328Z,5.00
2022-12-08T16:51:27.800Z,4.80
2022-12-08T16:52:27.278Z,4.86
2022-12-08T16:53:27.257Z,4.89
2022-12-08T16:54:27.255Z,4.91
2022-12-08T16:55:32.294Z,4.82
2022-12-08T16:56:32.582Z,4.80
2022-12-08T16:57:28.220Z,4.84
2022-12-08T16:58:27.210Z,4.84
2022-12-08T16:59:27.188Z,4.85
2022-12-08T17:00:27.189Z,4.85
2022-12-08T17:01:27.230Z,4.86
2022-12-08T17:02:27.162Z,4.82
2022-12-08T17:03:27.146Z,4.86
2022-12-08T17:04:31.818Z,4.80
2022-12-08T17:05:28.185Z,4.88
2022-12-08T17:06:32.151Z,4.82
2022-12-08T17:07:27.103Z,4.91
2022-12-08T17:08:27.179Z,4.78
2022-12-08T17:09:27.077Z,4.77
2022-12-08T17:10:27.124Z,4.84
2022-12-08T17:11:27.103Z,4.73
2022-12-08T17:12:27.052Z,4.82
2022-12-08T17:13:27.053Z,4.78
2022-12-08T17:14:27.023Z,4.78
2022-12-08T17:15:27.017Z,4.82
2022-12-08T17:16:27.113Z,4.82
2022-12-08T17:17:32.035Z,4.82
2022-12-08T17:18:26.977Z,4.78
2022-12-08T17:19:26.978Z,4.88
2022-12-08T17:20:26.968Z,4.86
2022-12-08T17:21:26.949Z,4.72
2022-12-08T17:22:26.950Z,4.72
2022-12-08T17:23:26.927Z,4.78
2022-12-08T17:24:26.912Z,4.77
2022-12-08T17:25:26.934Z,4.78
2022-12-08T17:26:26.894Z,4.77
2022-12-08T17:27:26.909Z,4.75
2022-12-08T17:28:58.897Z,4.73
2022-12-08T17:29:27.868Z,4.78
2022-12-08T17:30:26.992Z,4.72
2022-12-08T17:31:29.916Z,4.72
2022-12-08T17:32:26.980Z,4.72
2022-12-08T17:33:27.043Z,4.73
2022-12-08T17:34:26.812Z,4.70
2022-12-08T17:35:26.789Z,4.72
2022-12-08T17:36:26.792Z,4.69
2022-12-08T17:37:26.785Z,4.63
2022-12-08T17:38:26.771Z,4.63
2022-12-08T17:39:31.771Z,4.63
2022-12-08T17:40:28.344Z,4.65
2022-12-08T17:41:26.726Z,4.59
2022-12-08T17:42:26.728Z,4.62
2022-12-08T17:43:26.727Z,4.54
2022-12-08T17:44:26.698Z,4.59
2022-12-08T17:45:26.697Z,4.63
2022-12-08T17:46:26.774Z,4.55
2022-12-08T17:47:26.701Z,4.59
2022-12-08T17:48:26.656Z,4.58
2022-12-08T17:49:26.659Z,4.55
2022-12-08T17:50:31.663Z,4.52
2022-12-08T17:51:26.620Z,4.50
2022-12-08T17:52:26.621Z,4.51
2022-12-08T17:53:26.606Z,4.51
2022-12-08T17:54:26.597Z,4.60
2022-12-08T17:55:26.568Z,4.54
2022-12-08T17:56:26.634Z,4.54
2022-12-08T17:57:26.581Z,4.55
2022-12-08T17:58:26.539Z,4.63
2022-12-08T17:59:26.548Z,4.59
2022-12-08T18:00:26.528Z,4.55
2022-12-08T18:01:31.656Z,4.63
2022-12-08T18:02:26.571Z,4.58
2022-12-08T18:03:26.483Z,4.66
2022-12-08T18:04:26.471Z,4.60
2022-12-08T18:05:26.464Z,4.55
2022-12-08T18:06:30.933Z,4.60
2022-12-08T18:07:26.436Z,4.63
2022-12-08T18:08:26.475Z,4.58
2022-12-08T18:09:26.513Z,4.60
2022-12-08T18:10:26.408Z,4.54
2022-12-08T18:11:26.400Z,4.62
2022-12-08T18:12:31.439Z,4.54
2022-12-08T18:13:26.370Z,4.54
2022-12-08T18:14:26.380Z,4.42
2022-12-08T18:15:26.371Z,4.45
2022-12-08T18:16:26.474Z,4.47
2022-12-08T18:17:26.324Z,4.45
2022-12-08T18:18:26.323Z,4.44
2022-12-08T18:19:26.329Z,4.44
2022-12-08T18:20:26.302Z,4.33
2022-12-08T18:21:26.283Z,4.41
2022-12-08T18:22:26.274Z,4.37
2022-12-08T18:23:31.291Z,4.33
2022-12-08T18:24:26.244Z,4.36
2022-12-08T18:25:26.238Z,4.40
2022-12-08T18:26:26.224Z,4.34
2022-12-08T18:27:26.222Z,4.34
2022-12-08T18:28:26.233Z,4.40
2022-12-08T18:29:26.191Z,4.47
2022-12-08T18:30:26.181Z,4.42
2022-12-08T18:31:26.284Z,4.47
2022-12-08T18:32:26.166Z,4.44
2022-12-08T18:33:26.162Z,4.45